Terminal Aerodrome Forecast
Issued by NWS

Home | Current Version | Previous Version | Text Only | Print | Product List | Glossary Off
Versions: 1 2 3 4 5 6 7 8 9 10 11 12 13

000
FTUS43 KICT 252324
TAFHUT
TAF
KHUT 252324Z 2600/2624 17018G26KT P6SM SCT250
     FM260100 17015KT P6SM SCT250
     FM260600 15010KT P6SM SCT120 WS020/18035KT
     FM261000 36010KT P6SM SCT050=

USA.gov is the U.S. government's official web portal to all federal, state and local government web resources and services.